createdAt,value
2023-05-04T00:00:58.142Z,7.4
2023-05-04T00:01:58.162Z,7.1
2023-05-04T00:02:58.249Z,6.9
2023-05-04T00:03:58.384Z,6.7
2023-05-04T00:04:58.188Z,6.6
2023-05-04T00:05:58.158Z,6.8
2023-05-04T00:06:58.171Z,6.8
2023-05-04T00:07:58.176Z,7.4
2023-05-04T00:08:58.158Z,7
2023-05-04T00:09:58.155Z,7.1
2023-05-04T00:10:58.157Z,7.1
2023-05-04T00:11:58.144Z,6.9
2023-05-04T00:12:52.730Z,6.8
2023-05-04T00:13:58.139Z,6.9
2023-05-04T00:14:58.160Z,6.7
2023-05-04T00:16:58.206Z,6.4
2023-05-04T00:17:58.236Z,6.3
2023-05-04T00:18:58.271Z,6.7
2023-05-04T00:19:58.150Z,6.3
2023-05-04T00:20:58.158Z,6.3
2023-05-04T00:21:58.153Z,7
2023-05-04T00:22:58.175Z,6.7
2023-05-04T00:23:58.150Z,6.6
2023-05-04T00:24:58.163Z,6.9
2023-05-04T00:25:58.370Z,6.9
2023-05-04T00:26:58.171Z,7
2023-05-04T00:27:58.145Z,7.1
2023-05-04T00:28:58.145Z,7.3
2023-05-04T00:29:58.168Z,7.1
2023-05-04T00:30:58.161Z,7
2023-05-04T00:31:58.270Z,7
2023-05-04T00:33:58.154Z,6.9
2023-05-04T00:34:58.168Z,6.6
2023-05-04T00:35:58.174Z,6.4
2023-05-04T00:36:58.210Z,6.2
2023-05-04T00:37:58.157Z,6.2
2023-05-04T00:38:58.159Z,6.1
2023-05-04T00:39:58.164Z,6.4
2023-05-04T00:40:58.151Z,6
2023-05-04T00:41:58.197Z,6
2023-05-04T00:42:58.148Z,6
2023-05-04T00:43:58.150Z,5.8
2023-05-04T00:44:58.168Z,5.7
2023-05-04T00:45:58.171Z,5.7
2023-05-04T00:46:58.203Z,5.6
2023-05-04T00:47:58.181Z,5.7
2023-05-04T00:48:58.303Z,5.7
2023-05-04T00:49:58.156Z,5.7
2023-05-04T00:50:58.168Z,5.7
2023-05-04T00:51:58.182Z,5.6
2023-05-04T00:52:58.143Z,5.6
2023-05-04T00:54:58.170Z,5.9
2023-05-04T00:55:58.167Z,5.8
2023-05-04T00:56:58.141Z,5.9
2023-05-04T00:57:58.167Z,5.8
2023-05-04T00:58:58.167Z,5.8
2023-05-04T01:00:58.198Z,5.7
2023-05-04T01:01:58.275Z,5.9
2023-05-04T01:02:58.225Z,5.7
2023-05-04T01:03:58.220Z,5.5
2023-05-04T01:04:58.187Z,5.4
2023-05-04T01:05:58.211Z,5.4
2023-05-04T01:06:58.166Z,5.5
2023-05-04T01:07:58.142Z,5.4
2023-05-04T01:08:58.169Z,5.3
2023-05-04T01:09:58.191Z,5.2
2023-05-04T01:10:58.160Z,5.1
2023-05-04T01:11:58.160Z,5.1
2023-05-04T01:12:58.209Z,5.1
2023-05-04T01:13:58.167Z,5.2
2023-05-04T01:14:58.156Z,5.1
2023-05-04T01:15:58.179Z,5.1
2023-05-04T01:16:58.236Z,5.3
2023-05-04T01:17:58.198Z,5
2023-05-04T01:18:58.159Z,5.1
2023-05-04T01:19:58.181Z,5.2
2023-05-04T01:20:58.170Z,5.1
2023-05-04T01:21:58.186Z,5.2
2023-05-04T01:22:58.170Z,5.3
2023-05-04T01:23:58.149Z,5.2
2023-05-04T01:24:58.176Z,5.1
2023-05-04T01:25:58.159Z,5.1
2023-05-04T01:26:58.158Z,5.1
2023-05-04T01:27:58.166Z,4.9
2023-05-04T01:28:58.170Z,5.1
2023-05-04T01:29:58.148Z,5
2023-05-04T01:30:58.175Z,5
2023-05-04T01:31:58.166Z,4.9
2023-05-04T01:32:58.267Z,5.3
2023-05-04T01:33:58.153Z,5.1
2023-05-04T01:34:58.153Z,5
2023-05-04T01:35:58.178Z,4.8
2023-05-04T01:36:58.171Z,5
2023-05-04T01:37:58.162Z,5.4
2023-05-04T01:38:58.207Z,5.2
2023-05-04T01:40:58.153Z,5
2023-05-04T01:41:58.175Z,4.9
2023-05-04T01:42:58.156Z,4.8
2023-05-04T01:43:58.152Z,4.8
2023-05-04T01:44:58.157Z,5
2023-05-04T01:45:58.165Z,5.3
2023-05-04T01:46:58.152Z,5.3
2023-05-04T01:47:58.172Z,5.4
2023-05-04T01:48:58.168Z,5.7
2023-05-04T01:49:58.185Z,5.6
2023-05-04T01:50:58.149Z,5.5
2023-05-04T01:51:58.185Z,5.3
2023-05-04T01:52:58.170Z,5.3
2023-05-04T01:53:58.166Z,5.3
2023-05-04T01:54:58.152Z,5.4
2023-05-04T01:55:58.157Z,5.6
2023-05-04T01:56:58.164Z,5.6
2023-05-04T01:57:58.152Z,5.7
2023-05-04T01:58:58.152Z,5.7
2023-05-04T01:59:58.162Z,5.8
2023-05-04T02:00:58.178Z,5.9
2023-05-04T02:01:58.187Z,6
2023-05-04T02:02:58.253Z,5.9
2023-05-04T02:03:58.345Z,6
2023-05-04T02:04:58.172Z,6.1
2023-05-04T02:05:58.152Z,6.1
2023-05-04T02:06:58.179Z,6.1
2023-05-04T02:07:58.176Z,5.8
2023-05-04T02:08:58.157Z,5.8
2023-05-04T02:09:58.155Z,6
2023-05-04T02:10:58.164Z,6
2023-05-04T02:11:58.160Z,6.1
2023-05-04T02:12:58.203Z,6.1
2023-05-04T02:13:58.164Z,6.1
2023-05-04T02:14:58.157Z,6
2023-05-04T02:15:58.189Z,6.1
2023-05-04T02:16:58.146Z,6.1
2023-05-04T02:17:58.215Z,6.1
2023-05-04T02:18:58.200Z,6
2023-05-04T02:19:58.144Z,6.1
2023-05-04T02:20:58.167Z,6.1
2023-05-04T02:21:58.160Z,6.2
2023-05-04T02:22:58.172Z,6.1
2023-05-04T02:23:58.148Z,6
2023-05-04T02:24:58.180Z,6
2023-05-04T02:25:58.170Z,6.2
2023-05-04T02:26:58.146Z,6.1
2023-05-04T02:27:58.154Z,6.2
2023-05-04T02:28:58.163Z,6.1
2023-05-04T02:29:58.155Z,6.2
2023-05-04T02:30:58.163Z,6.2
2023-05-04T02:31:58.278Z,6.1
2023-05-04T02:32:58.205Z,6.1
2023-05-04T02:33:58.157Z,6.1
2023-05-04T02:34:58.156Z,6.1
2023-05-04T02:35:58.159Z,6.2
2023-05-04T02:36:58.165Z,6.2
2023-05-04T02:37:58.226Z,6.1
2023-05-04T02:38:58.167Z,6.1
2023-05-04T02:39:58.176Z,6.1
2023-05-04T02:40:58.179Z,6
2023-05-04T02:41:58.152Z,6.1
2023-05-04T02:42:58.162Z,6.1
2023-05-04T02:43:58.161Z,5.9
2023-05-04T02:44:58.178Z,6
2023-05-04T02:46:58.152Z,6
2023-05-04T02:47:58.369Z,5.8
2023-05-04T02:48:58.275Z,5.8
2023-05-04T02:49:58.169Z,5.9
2023-05-04T02:50:58.183Z,5.8
2023-05-04T02:51:58.185Z,5.8
2023-05-04T02:52:58.154Z,5.9
2023-05-04T02:53:58.343Z,5.9
2023-05-04T02:54:58.182Z,6
2023-05-04T02:56:58.162Z,5.9
2023-05-04T02:57:58.169Z,5.9
2023-05-04T02:58:58.331Z,5.9
2023-05-04T02:59:58.149Z,5.9
2023-05-04T03:00:58.209Z,5.9
2023-05-04T03:01:58.217Z,6
2023-05-04T03:02:58.222Z,5.9
2023-05-04T03:03:58.409Z,5.6
2023-05-04T03:04:58.168Z,6
2023-05-04T03:05:58.160Z,5.8
2023-05-04T03:06:58.257Z,5.8
2023-05-04T03:07:58.178Z,5.9
2023-05-04T03:08:58.378Z,6
2023-05-04T03:09:58.179Z,5.8
2023-05-04T03:10:58.192Z,5.8
2023-05-04T03:12:58.206Z,5.9
2023-05-04T03:13:58.559Z,6
2023-05-04T03:14:58.171Z,5.9
2023-05-04T03:15:58.167Z,5.9
2023-05-04T03:16:58.207Z,6
2023-05-04T03:17:58.201Z,5.9
2023-05-04T03:18:58.578Z,5.7
2023-05-04T03:19:58.180Z,5.6
2023-05-04T03:20:58.174Z,5.5
2023-05-04T03:21:58.172Z,5.3
2023-05-04T03:22:58.189Z,5.4
2023-05-04T03:23:58.177Z,5.3
2023-05-04T03:24:58.180Z,5.1
2023-05-04T03:25:58.152Z,5
2023-05-04T03:26:58.158Z,5
2023-05-04T03:27:58.174Z,5
2023-05-04T03:28:58.168Z,4.9
2023-05-04T03:29:58.152Z,5.1
2023-05-04T03:30:58.214Z,5.2
2023-05-04T03:31:58.254Z,5.1
2023-05-04T03:32:58.206Z,5.2
2023-05-04T03:33:58.173Z,5
2023-05-04T03:34:58.174Z,4.9
2023-05-04T03:35:58.174Z,4.8
2023-05-04T03:36:58.166Z,4.7
2023-05-04T03:37:58.150Z,4.8
2023-05-04T03:38:58.177Z,5
2023-05-04T03:39:58.175Z,5.2
2023-05-04T03:40:58.150Z,5.2
2023-05-04T03:42:58.205Z,5.2
2023-05-04T03:43:58.167Z,5.3
2023-05-04T03:44:58.159Z,5.3
2023-05-04T03:45:58.191Z,5.3
2023-05-04T03:46:58.168Z,5.2
2023-05-04T03:47:58.194Z,5.2
2023-05-04T03:48:58.172Z,5.1
2023-05-04T03:49:58.206Z,5.1
2023-05-04T03:50:58.152Z,4.9
2023-05-04T03:51:58.148Z,4.7
2023-05-04T03:52:58.179Z,4.6
2023-05-04T03:53:58.146Z,4.5
2023-05-04T03:54:58.190Z,4.5
2023-05-04T03:55:58.173Z,4.6
2023-05-04T03:56:58.179Z,4.4
2023-05-04T03:57:58.160Z,4.4
2023-05-04T03:58:58.159Z,4.3
2023-05-04T03:59:58.179Z,4.4
2023-05-04T04:00:58.208Z,4.4
2023-05-04T04:01:58.246Z,4.4
2023-05-04T04:02:58.334Z,4.4
2023-05-04T04:03:58.256Z,4.4
2023-05-04T04:04:58.163Z,4.4
2023-05-04T04:05:58.174Z,4.3
2023-05-04T04:06:58.163Z,4.2
2023-05-04T04:07:58.169Z,4.3
2023-05-04T04:08:58.180Z,4.2
2023-05-04T04:09:58.192Z,4.1
2023-05-04T04:10:58.150Z,4.1
2023-05-04T04:11:58.176Z,4.1
2023-05-04T04:12:58.297Z,4.1
2023-05-04T04:13:58.173Z,3.9
2023-05-04T04:14:58.160Z,3.9
2023-05-04T04:15:58.173Z,3.9
2023-05-04T04:16:58.176Z,3.9
2023-05-04T04:18:58.232Z,3.9
2023-05-04T04:19:58.190Z,4.1
2023-05-04T04:20:58.172Z,4.1
2023-05-04T04:21:58.157Z,4
2023-05-04T04:22:58.174Z,4
2023-05-04T04:24:58.168Z,4.1
2023-05-04T04:25:58.178Z,4.5
2023-05-04T04:26:58.176Z,4.7
2023-05-04T04:27:58.183Z,4.7
2023-05-04T04:28:58.174Z,4.7
2023-05-04T04:29:58.162Z,4.8
2023-05-04T04:30:58.185Z,4.6
2023-05-04T04:31:58.268Z,4.9
2023-05-04T04:32:58.200Z,5
2023-05-04T04:33:58.173Z,5
2023-05-04T04:34:58.163Z,5.1
2023-05-04T04:35:58.172Z,4.9
2023-05-04T04:36:58.151Z,5
2023-05-04T04:37:58.260Z,5
2023-05-04T04:38:58.180Z,5
2023-05-04T04:39:58.179Z,5.2
2023-05-04T04:40:58.164Z,5.2
2023-05-04T04:41:58.181Z,5.3
2023-05-04T04:42:58.171Z,5.3
2023-05-04T04:43:58.172Z,5.3
2023-05-04T04:44:58.173Z,5.3
2023-05-04T04:46:58.281Z,5.5
2023-05-04T04:47:58.202Z,5.6
2023-05-04T04:48:58.163Z,5.5
2023-05-04T04:49:58.250Z,5.6
2023-05-04T04:50:58.181Z,5.5
2023-05-04T04:51:58.172Z,5.6
2023-05-04T04:52:58.174Z,5.6
2023-05-04T04:53:58.170Z,5.5
2023-05-04T04:54:58.179Z,5.4
2023-05-04T04:55:58.185Z,5.5
2023-05-04T04:56:58.164Z,5.5
2023-05-04T04:57:58.166Z,5.5
2023-05-04T04:58:58.176Z,5.5
2023-05-04T05:00:58.372Z,5.6
2023-05-04T05:01:58.272Z,5.6
2023-05-04T05:02:58.333Z,5.7
2023-05-04T05:03:58.457Z,5.6
2023-05-04T05:04:58.202Z,5.8
2023-05-04T05:05:58.171Z,5.7
2023-05-04T05:06:58.202Z,5.8
2023-05-04T05:07:58.154Z,5.7
2023-05-04T05:08:58.170Z,5.7
2023-05-04T05:09:58.173Z,5.9
2023-05-04T05:10:58.174Z,6
2023-05-04T05:11:58.152Z,5.9
2023-05-04T05:12:58.221Z,6.2
2023-05-04T05:13:58.171Z,6
2023-05-04T05:14:58.153Z,6.2
2023-05-04T05:15:58.175Z,6.2
2023-05-04T05:16:58.233Z,6.1
2023-05-04T05:17:58.199Z,6
2023-05-04T05:18:58.229Z,6
2023-05-04T05:19:58.170Z,6
2023-05-04T05:20:58.168Z,5.9
2023-05-04T05:21:58.183Z,5.8
2023-05-04T05:22:58.173Z,5.7
2023-05-04T05:24:58.189Z,5.9
2023-05-04T05:25:58.215Z,6
2023-05-04T05:26:58.173Z,6
2023-05-04T05:27:58.163Z,6.1
2023-05-04T05:28:58.181Z,6.6
2023-05-04T05:29:58.191Z,6.7
2023-05-04T05:30:58.203Z,6.8
2023-05-04T05:31:58.167Z,6.8
2023-05-04T05:32:58.223Z,6.9
2023-05-04T05:33:58.175Z,7.2
2023-05-04T05:34:58.198Z,7.3
2023-05-04T05:35:58.166Z,7.3
2023-05-04T05:36:58.190Z,7.3
2023-05-04T05:37:58.215Z,7.3
2023-05-04T05:38:58.181Z,7.4
2023-05-04T05:39:58.168Z,7.5
2023-05-04T05:40:58.175Z,7.7
2023-05-04T05:41:58.201Z,7.9
2023-05-04T05:42:58.241Z,8
2023-05-04T05:43:58.159Z,8
2023-05-04T05:44:58.178Z,7.9
2023-05-04T05:46:58.166Z,7.9
2023-05-04T05:47:58.247Z,8.2
2023-05-04T05:48:58.222Z,8.4
2023-05-04T05:49:58.227Z,8.5
2023-05-04T05:50:58.176Z,8.5
2023-05-04T05:51:58.171Z,8.4
2023-05-04T05:52:58.180Z,8.7
2023-05-04T05:53:58.162Z,8.9
2023-05-04T05:54:59.840Z,9.1
2023-05-04T05:55:58.166Z,8.8
2023-05-04T05:56:58.177Z,9
2023-05-04T05:57:58.156Z,9.1
2023-05-04T05:58:58.169Z,9
2023-05-04T05:59:58.186Z,9.1
2023-05-04T06:00:58.173Z,8.8
2023-05-04T06:01:58.184Z,9.3
2023-05-04T06:02:58.255Z,9.2
2023-05-04T06:03:58.413Z,9.2
2023-05-04T06:04:58.283Z,9.1
2023-05-04T06:05:58.178Z,8.9
2023-05-04T06:06:58.192Z,9.2
2023-05-04T06:07:58.214Z,8.9
2023-05-04T06:08:58.176Z,8.8
2023-05-04T06:09:58.178Z,8.8
2023-05-04T06:10:58.164Z,8.8
2023-05-04T06:11:58.216Z,8.9
2023-05-04T06:12:58.207Z,9.1
2023-05-04T06:13:58.163Z,9.4
2023-05-04T06:14:58.175Z,9.2
2023-05-04T06:15:58.225Z,9.2
2023-05-04T06:16:58.174Z,9.1
2023-05-04T06:17:58.225Z,9.5
2023-05-04T06:18:58.186Z,9.5
2023-05-04T06:19:58.166Z,9.5
2023-05-04T06:20:58.256Z,9.2
2023-05-04T06:21:58.283Z,9.3
2023-05-04T06:22:58.333Z,9.5
2023-05-04T06:23:58.172Z,9.5
2023-05-04T06:25:02.784Z,9.3
2023-05-04T06:25:58.186Z,9.6
2023-05-04T06:26:58.183Z,9.6
2023-05-04T06:27:58.180Z,9.8
2023-05-04T06:28:58.230Z,9.8
2023-05-04T06:29:58.190Z,9.7
2023-05-04T06:30:58.166Z,9.6
2023-05-04T06:31:58.195Z,9.3
2023-05-04T06:32:58.204Z,9.3
2023-05-04T06:33:59.211Z,9.3
2023-05-04T06:34:58.190Z,9.2
2023-05-04T06:35:58.170Z,9.3
2023-05-04T06:36:58.179Z,9.4
2023-05-04T06:37:58.196Z,9.4
2023-05-04T06:38:58.212Z,9.4
2023-05-04T06:39:58.169Z,9.6
2023-05-04T06:40:58.215Z,9.5
2023-05-04T06:41:58.324Z,9.4
2023-05-04T06:42:58.439Z,9.6
2023-05-04T06:43:58.967Z,9.7
2023-05-04T06:44:58.282Z,9.7
2023-05-04T06:45:58.205Z,9.8
2023-05-04T06:46:58.188Z,9.7
2023-05-04T06:47:58.216Z,9.8
2023-05-04T06:48:58.190Z,9.7
2023-05-04T06:49:58.203Z,10.1
2023-05-04T06:50:58.817Z,9.9
2023-05-04T06:51:58.183Z,9.8
2023-05-04T06:52:58.184Z,10
2023-05-04T06:53:58.173Z,10.1
2023-05-04T06:54:58.214Z,9.8
2023-05-04T06:55:58.196Z,10.2
2023-05-04T06:56:58.195Z,10.1
2023-05-04T06:57:58.254Z,10
2023-05-04T06:58:58.189Z,10.3
2023-05-04T06:59:58.225Z,10.2
2023-05-04T07:00:58.206Z,10.1
2023-05-04T07:01:58.214Z,10.5
2023-05-04T07:02:58.194Z,10.4
2023-05-04T07:03:58.373Z,10.5
2023-05-04T07:04:58.186Z,10.3
2023-05-04T07:05:58.191Z,10.4
2023-05-04T07:06:58.179Z,10.6
2023-05-04T07:07:58.198Z,10.5
2023-05-04T07:08:58.188Z,10.6
2023-05-04T07:09:58.200Z,10.6
2023-05-04T07:10:58.188Z,10.5
2023-05-04T07:11:58.216Z,10.5
2023-05-04T07:12:58.259Z,10.7
2023-05-04T07:13:58.209Z,10.5
2023-05-04T07:14:58.186Z,10.7
2023-05-04T07:15:58.215Z,10.8
2023-05-04T07:16:58.214Z,11
2023-05-04T07:17:58.189Z,11
2023-05-04T07:18:58.182Z,10.8
2023-05-04T07:19:58.196Z,10.8
2023-05-04T07:21:58.206Z,11.1
2023-05-04T07:22:58.179Z,10.8
2023-05-04T07:23:58.230Z,11.1
2023-05-04T07:24:58.195Z,11.2
2023-05-04T07:25:58.170Z,11.2
2023-05-04T07:26:58.179Z,11.2
2023-05-04T07:27:58.194Z,11.5
2023-05-04T07:28:58.209Z,11.4
2023-05-04T07:29:58.222Z,11
2023-05-04T07:30:58.184Z,11.1
2023-05-04T07:31:58.257Z,11.4
2023-05-04T07:32:58.267Z,11.3
2023-05-04T07:34:05.222Z,11.1
2023-05-04T07:34:58.200Z,11.3
2023-05-04T07:35:58.216Z,11.4
2023-05-04T07:36:58.194Z,11.4
2023-05-04T07:37:58.187Z,11.6
2023-05-04T07:38:58.193Z,11.5
2023-05-04T07:39:58.210Z,11.6
2023-05-04T07:40:58.227Z,11.5
2023-05-04T07:41:58.209Z,11.3
2023-05-04T07:42:58.408Z,11.4
2023-05-04T07:43:58.200Z,11.6
2023-05-04T07:44:58.223Z,12
2023-05-04T07:45:58.228Z,12
2023-05-04T07:46:58.194Z,11.7
2023-05-04T07:47:58.273Z,11.8
2023-05-04T07:48:58.177Z,11.6
2023-05-04T07:49:58.197Z,11.5
2023-05-04T07:50:58.207Z,12.2
2023-05-04T07:51:58.210Z,12
2023-05-04T07:52:58.197Z,12
2023-05-04T07:53:58.186Z,12.1
2023-05-04T07:54:58.201Z,11.8
2023-05-04T07:55:58.210Z,11.8
2023-05-04T07:56:58.197Z,11.8
2023-05-04T07:57:58.197Z,11.5
2023-05-04T07:58:58.207Z,11.4
2023-05-04T08:00:58.200Z,12
2023-05-04T08:01:58.222Z,12.2
2023-05-04T08:02:58.269Z,11.9
2023-05-04T08:03:58.194Z,11.6
2023-05-04T08:04:58.191Z,12.1
2023-05-04T08:05:58.211Z,12.4
2023-05-04T08:06:58.228Z,12.2
2023-05-04T08:07:58.211Z,12.1
2023-05-04T08:08:58.193Z,11.7
2023-05-04T08:09:58.204Z,11.6
2023-05-04T08:11:11.546Z,11.7
2023-05-04T08:11:58.251Z,11.8
2023-05-04T08:12:58.224Z,11.8
2023-05-04T08:13:58.204Z,12.4
2023-05-04T08:14:58.202Z,12.1
2023-05-04T08:15:58.205Z,12
2023-05-04T08:16:58.205Z,12.4
2023-05-04T08:17:58.253Z,12.3
2023-05-04T08:18:58.212Z,12.2
2023-05-04T08:19:58.192Z,12.2
2023-05-04T08:20:58.214Z,12.2
2023-05-04T08:21:58.203Z,12.1
2023-05-04T08:22:58.189Z,12.2
2023-05-04T08:23:58.206Z,12
2023-05-04T08:24:58.216Z,12.4
2023-05-04T08:25:58.451Z,12.6
2023-05-04T08:27:07.137Z,12.3
2023-05-04T08:27:58.203Z,12.2
2023-05-04T08:28:58.217Z,12.1
2023-05-04T08:31:58.355Z,12.1
2023-05-04T08:33:52.675Z,12.2
2023-05-04T08:34:58.198Z,12
2023-05-04T08:35:58.214Z,12.3
2023-05-04T08:36:58.221Z,12.7
2023-05-04T08:37:58.188Z,12.4
2023-05-04T08:38:58.269Z,12.4
2023-05-04T08:39:58.201Z,12.6
2023-05-04T08:40:58.210Z,13
2023-05-04T08:42:58.201Z,12.6
2023-05-04T08:43:58.212Z,12.6
2023-05-04T08:44:58.219Z,12.7
2023-05-04T08:45:58.225Z,12.6
2023-05-04T08:46:58.236Z,12.4
2023-05-04T08:47:58.253Z,12.3
2023-05-04T08:48:58.244Z,12.3
2023-05-04T08:49:58.202Z,12.4
2023-05-04T08:50:58.220Z,12.6
2023-05-04T08:51:58.212Z,12.6
2023-05-04T08:52:58.214Z,12.6
2023-05-04T08:53:58.225Z,12.5
2023-05-04T08:54:58.213Z,12.5
2023-05-04T08:55:58.211Z,12.5
2023-05-04T08:56:58.214Z,12.4
2023-05-04T08:58:58.213Z,13
2023-05-04T08:59:58.203Z,13
2023-05-04T09:00:58.296Z,13.4
2023-05-04T09:01:58.239Z,13.1
2023-05-04T09:02:58.301Z,12.5
2023-05-04T09:03:58.303Z,12.8
2023-05-04T09:04:58.209Z,12.6
2023-05-04T09:05:58.236Z,12.6
2023-05-04T09:06:58.221Z,12.8
2023-05-04T09:07:58.210Z,13.2
2023-05-04T09:08:58.221Z,12.8
2023-05-04T09:09:58.283Z,12.9
2023-05-04T09:10:58.230Z,13.3
2023-05-04T09:11:58.205Z,13.2
2023-05-04T09:12:58.272Z,12.9
2023-05-04T09:13:58.238Z,13
2023-05-04T09:14:58.205Z,13
2023-05-04T09:15:58.222Z,12.9
2023-05-04T09:16:58.239Z,13
2023-05-04T09:17:58.408Z,12.9
2023-05-04T09:18:58.211Z,13
2023-05-04T09:19:58.215Z,13.3
2023-05-04T09:20:58.227Z,13.2
2023-05-04T09:21:58.444Z,13.9
2023-05-04T09:22:58.199Z,14.1
2023-05-04T09:23:58.254Z,14.1
2023-05-04T09:24:58.224Z,13.9
2023-05-04T09:25:58.237Z,13.7
2023-05-04T09:26:58.204Z,13.5
2023-05-04T09:27:58.202Z,13.4
2023-05-04T09:28:58.222Z,13.8
2023-05-04T09:29:58.266Z,13.9
2023-05-04T09:30:58.277Z,14.1
2023-05-04T09:31:58.234Z,14.3
2023-05-04T09:33:58.227Z,14.3
2023-05-04T09:34:58.218Z,13.7
2023-05-04T09:35:58.275Z,13.6
2023-05-04T09:36:58.239Z,13.7
2023-05-04T09:37:58.226Z,13.9
2023-05-04T09:38:58.220Z,13.9
2023-05-04T09:40:58.214Z,14.6
2023-05-04T09:41:58.206Z,14.5
2023-05-04T09:42:58.232Z,14.6
2023-05-04T09:43:58.215Z,14.2
2023-05-04T09:44:58.223Z,14.4
2023-05-04T09:45:58.246Z,14.3
2023-05-04T09:47:08.525Z,14.6
2023-05-04T09:47:58.251Z,14.4
2023-05-04T09:48:58.217Z,14.4
2023-05-04T09:49:58.246Z,15
2023-05-04T09:50:58.277Z,15.5
2023-05-04T09:51:58.230Z,15.1
2023-05-04T09:52:58.229Z,14.9
2023-05-04T09:53:58.239Z,15.1
2023-05-04T09:54:58.234Z,15.1
2023-05-04T09:56:58.233Z,15
2023-05-04T09:57:58.268Z,15.2
2023-05-04T09:58:58.223Z,14.9
2023-05-04T09:59:58.207Z,15.5
2023-05-04T10:00:58.241Z,15.3
2023-05-04T10:02:00.414Z,15
2023-05-04T10:02:58.265Z,15.7
2023-05-04T10:03:58.257Z,15.8
2023-05-04T10:04:58.241Z,16
2023-05-04T10:05:58.296Z,15.6
2023-05-04T10:06:58.255Z,15.3
2023-05-04T10:07:58.257Z,15.8
2023-05-04T10:08:58.210Z,15.7
2023-05-04T10:09:58.235Z,15.8
2023-05-04T10:10:58.273Z,15.9
2023-05-04T10:12:00.061Z,15.7
2023-05-04T10:12:58.257Z,15.7
2023-05-04T10:13:58.237Z,16.1
2023-05-04T10:14:58.260Z,16.2
2023-05-04T10:16:58.232Z,16.3
2023-05-04T10:17:58.258Z,16.1
2023-05-04T10:18:58.230Z,16
2023-05-04T10:19:58.253Z,16
2023-05-04T10:20:58.271Z,15.8
2023-05-04T10:22:58.218Z,15.4
2023-05-04T10:23:58.252Z,15.5
2023-05-04T10:24:58.236Z,16
2023-05-04T10:25:58.240Z,16
2023-05-04T10:26:58.216Z,16.3
2023-05-04T10:27:58.249Z,16.1
2023-05-04T10:28:58.242Z,16.5
2023-05-04T10:29:58.238Z,16.6
2023-05-04T10:30:58.245Z,16
2023-05-04T10:31:58.291Z,16.7
2023-05-04T10:32:58.287Z,16.4
2023-05-04T10:33:58.247Z,16.8
2023-05-04T10:34:58.226Z,16.3
2023-05-04T10:35:58.268Z,16.4
2023-05-04T10:36:58.257Z,16.6
2023-05-04T10:37:58.231Z,16.4
2023-05-04T10:38:58.227Z,16.5
2023-05-04T10:39:58.247Z,16.4
2023-05-04T10:40:58.261Z,17.1
2023-05-04T10:41:58.241Z,16.8
2023-05-04T10:42:58.236Z,16.7
2023-05-04T10:43:58.238Z,16.6
2023-05-04T10:44:58.244Z,16.9
2023-05-04T10:45:58.263Z,17.2
2023-05-04T10:46:59.683Z,17.4
2023-05-04T10:47:58.397Z,17.2
2023-05-04T10:48:58.241Z,17.3
2023-05-04T10:49:58.239Z,17.2
2023-05-04T10:50:58.260Z,17.5
2023-05-04T10:51:58.247Z,17.2
2023-05-04T10:52:59.955Z,17
2023-05-04T10:53:58.244Z,17
2023-05-04T10:54:58.240Z,17.6
2023-05-04T10:56:58.264Z,17.6
2023-05-04T10:57:58.258Z,17.5
2023-05-04T10:58:58.247Z,17.7
2023-05-04T10:59:58.235Z,17.4
2023-05-04T11:00:58.300Z,18.1
2023-05-04T11:01:58.230Z,18.1
2023-05-04T11:02:58.301Z,17.8
2023-05-04T11:03:58.246Z,17.5
2023-05-04T11:04:58.253Z,17.7
2023-05-04T11:06:58.257Z,16.7
2023-05-04T11:07:59.958Z,17.4
2023-05-04T11:08:58.230Z,17.7
2023-05-04T11:09:58.242Z,17.3
2023-05-04T11:10:58.245Z,17.6
2023-05-04T11:11:58.398Z,17.6
2023-05-04T11:12:58.342Z,17.6
2023-05-04T11:13:58.247Z,17.6
2023-05-04T11:14:58.243Z,18
2023-05-04T11:16:58.253Z,17.8
2023-05-04T11:17:58.299Z,18
2023-05-04T11:18:58.240Z,18.2
2023-05-04T11:19:58.317Z,18
2023-05-04T11:20:58.309Z,18.2
2023-05-04T11:21:58.259Z,17.9
2023-05-04T11:22:58.236Z,17.5
2023-05-04T11:23:58.245Z,17.8
2023-05-04T11:24:58.264Z,17.7
2023-05-04T11:25:58.281Z,17.6
2023-05-04T11:26:58.250Z,17.7
2023-05-04T11:27:58.306Z,17.7
2023-05-04T11:28:58.269Z,17.8
2023-05-04T11:29:58.285Z,17.7
2023-05-04T11:30:58.254Z,17.4
2023-05-04T11:31:58.312Z,17.9
2023-05-04T11:32:58.310Z,18.4
2023-05-04T11:33:58.261Z,17.9
2023-05-04T11:34:58.258Z,17.6
2023-05-04T11:35:58.271Z,17.6
2023-05-04T11:36:58.256Z,18.1
2023-05-04T11:37:58.262Z,17.8
2023-05-04T11:38:58.272Z,18.1
2023-05-04T11:39:58.272Z,18.5
2023-05-04T11:40:58.255Z,18
2023-05-04T11:41:58.285Z,18
2023-05-04T11:42:58.257Z,18.3
2023-05-04T11:43:58.268Z,17.5
2023-05-04T11:44:58.277Z,17.8
2023-05-04T11:46:58.254Z,17.8
2023-05-04T11:47:58.306Z,18.2
2023-05-04T11:48:58.297Z,17.8
2023-05-04T11:49:58.253Z,17.9
2023-05-04T11:50:58.296Z,18
2023-05-04T11:51:58.262Z,18
2023-05-04T11:52:58.260Z,17.8
2023-05-04T11:53:58.321Z,17.7
2023-05-04T11:54:58.318Z,17.8
2023-05-04T11:55:58.279Z,17.7
2023-05-04T11:56:58.263Z,17.7
2023-05-04T11:57:58.266Z,17.3
2023-05-04T11:58:58.317Z,17.4
2023-05-04T11:59:58.251Z,17.4
2023-05-04T12:00:58.276Z,17
2023-05-04T12:01:58.260Z,17.4
2023-05-04T12:02:58.435Z,18.1
2023-05-04T12:03:58.433Z,18.9
2023-05-04T12:04:58.284Z,18.3
2023-05-04T12:05:58.426Z,18.1
2023-05-04T12:07:00.315Z,18
2023-05-04T12:07:58.275Z,18.2
2023-05-04T12:08:58.270Z,18.3
2023-05-04T12:09:58.290Z,18.3
2023-05-04T12:10:58.248Z,17.9
2023-05-04T12:11:58.282Z,18.1
2023-05-04T12:12:58.306Z,18.1
2023-05-04T12:13:58.278Z,18.1
2023-05-04T12:14:58.252Z,18.4
2023-05-04T12:15:58.307Z,17.7
2023-05-04T12:16:58.258Z,17.9
2023-05-04T12:18:00.229Z,18.4
2023-05-04T12:18:58.274Z,18.1
2023-05-04T12:19:58.285Z,18.5
2023-05-04T12:20:58.287Z,18.2
2023-05-04T12:21:58.310Z,17.7
2023-05-04T12:22:58.283Z,18
2023-05-04T12:23:58.270Z,17.7
2023-05-04T12:24:58.324Z,17.7
2023-05-04T12:25:58.664Z,18.3
2023-05-04T12:26:58.292Z,18.1
2023-05-04T12:27:58.254Z,18.2
2023-05-04T12:28:58.268Z,17.9
2023-05-04T12:29:58.275Z,18.5
2023-05-04T12:30:58.270Z,18.2
2023-05-04T12:31:58.320Z,18.6
2023-05-04T12:32:58.314Z,18.2
2023-05-04T12:33:58.268Z,18.4
2023-05-04T12:34:58.270Z,18.2
2023-05-04T12:35:58.305Z,17.8
2023-05-04T12:36:58.284Z,18.1
2023-05-04T12:37:58.263Z,18.5
2023-05-04T12:38:58.293Z,18.4
2023-05-04T12:39:58.321Z,18.7
2023-05-04T12:40:58.271Z,18.9
2023-05-04T12:41:58.301Z,18.5
2023-05-04T12:42:58.280Z,18.8
2023-05-04T12:43:58.296Z,18.5
2023-05-04T12:44:58.270Z,18.4
2023-05-04T12:45:58.312Z,18.1
2023-05-04T12:46:58.296Z,18.2
2023-05-04T12:47:58.295Z,18.7
2023-05-04T12:48:58.313Z,18.7
2023-05-04T12:49:58.283Z,18.5
2023-05-04T12:51:58.298Z,19.1
2023-05-04T12:52:58.274Z,18.9
2023-05-04T12:53:58.282Z,18.6
2023-05-04T12:54:58.283Z,19
2023-05-04T12:55:58.356Z,18.8
2023-05-04T12:56:58.388Z,18.8
2023-05-04T12:57:58.286Z,19.3
2023-05-04T12:58:58.312Z,19
2023-05-04T12:59:58.285Z,18.8
2023-05-04T13:00:58.306Z,19.2
2023-05-04T13:01:58.272Z,18.9
2023-05-04T13:02:58.389Z,19.2
2023-05-04T13:03:58.291Z,18.6
2023-05-04T13:04:58.267Z,19.1
2023-05-04T13:05:58.297Z,18.9
2023-05-04T13:06:58.305Z,18.6
2023-05-04T13:07:58.279Z,18.6
2023-05-04T13:08:58.297Z,19.1
2023-05-04T13:09:58.295Z,19.4
2023-05-04T13:10:58.324Z,19.5
2023-05-04T13:11:58.287Z,19.2
2023-05-04T13:12:58.335Z,18.8
2023-05-04T13:13:58.294Z,19.8
2023-05-04T13:14:58.288Z,19.9
2023-05-04T13:15:58.378Z,19.9
2023-05-04T13:16:58.286Z,19.8
2023-05-04T13:17:58.338Z,19.3
2023-05-04T13:18:58.297Z,19.6
2023-05-04T13:19:58.289Z,19.2
2023-05-04T13:20:58.340Z,19.3
2023-05-04T13:21:58.298Z,19
2023-05-04T13:22:58.638Z,18.8
2023-05-04T13:23:58.308Z,19.7
2023-05-04T13:24:58.302Z,19.4
2023-05-04T13:25:58.289Z,20.2
2023-05-04T13:26:58.319Z,19.5
2023-05-04T13:27:58.325Z,19.4
2023-05-04T13:28:58.302Z,19.6
2023-05-04T13:29:58.320Z,20.3
2023-05-04T13:30:58.335Z,20.6
2023-05-04T13:31:58.354Z,20.7
2023-05-04T13:32:58.387Z,20.2
2023-05-04T13:33:58.304Z,20.2
2023-05-04T13:34:58.291Z,20.5
2023-05-04T13:35:58.642Z,20.3
2023-05-04T13:36:58.300Z,20
2023-05-04T13:37:58.294Z,20
2023-05-04T13:38:58.288Z,19.7
2023-05-04T13:39:58.309Z,20.7
2023-05-04T13:40:58.307Z,19.9
2023-05-04T13:41:58.284Z,20.6
2023-05-04T13:42:58.300Z,20.4
2023-05-04T13:43:58.303Z,21.1
2023-05-04T13:44:58.346Z,20.6
2023-05-04T13:45:58.301Z,20.8
2023-05-04T13:46:58.343Z,20.8
2023-05-04T13:47:58.354Z,20.6
2023-05-04T13:49:58.306Z,20.2
2023-05-04T13:50:58.327Z,19.8
2023-05-04T13:51:58.310Z,20.6
2023-05-04T13:52:58.305Z,20.3
2023-05-04T13:53:59.554Z,19.8
2023-05-04T13:54:58.286Z,19.8
2023-05-04T13:55:58.325Z,20.6
2023-05-04T13:56:58.305Z,20
2023-05-04T13:58:58.305Z,20.1
2023-05-04T14:00:07.025Z,20.9
2023-05-04T14:00:58.341Z,21.1
2023-05-04T14:01:58.336Z,21
2023-05-04T14:02:58.370Z,21
2023-05-04T14:03:58.310Z,20.4
2023-05-04T14:04:58.303Z,20.7
2023-05-04T14:05:58.314Z,20.7
2023-05-04T14:06:58.312Z,20.7
2023-05-04T14:07:58.308Z,20.6
2023-05-04T14:08:58.310Z,20.5
2023-05-04T14:09:58.333Z,20.2
2023-05-04T14:10:58.313Z,20.5
2023-05-04T14:11:58.306Z,19.9
2023-05-04T14:12:58.384Z,20.2